sensor_id;sensor_type;location;lat;lon;timestamp;P1;durP1;ratioP1;P2;durP2;ratioP2
72647;SDS011;60693;50.002;8.644;2023-09-18T00:00:51;14.05;;;5.03;;
72647;SDS011;60693;50.002;8.644;2023-09-18T00:03:36;11.40;;;5.38;;
72647;SDS011;60693;50.002;8.644;2023-09-18T00:06:02;12.90;;;5.23;;
72647;SDS011;60693;50.002;8.644;2023-09-18T00:08:28;12.60;;;4.70;;
72647;SDS011;60693;50.002;8.644;2023-09-18T00:10:54;12.90;;;5.15;;
72647;SDS011;60693;50.002;8.644;2023-09-18T00:13:23;13.53;;;5.47;;
72647;SDS011;60693;50.002;8.644;2023-09-18T00:15:49;13.75;;;5.43;;
72647;SDS011;60693;50.002;8.644;2023-09-18T00:18:16;15.30;;;5.45;;
72647;SDS011;60693;50.002;8.644;2023-09-18T00:20:43;12.32;;;5.45;;
72647;SDS011;60693;50.002;8.644;2023-09-18T00:23:09;11.23;;;5.32;;
72647;SDS011;60693;50.002;8.644;2023-09-18T00:25:35;12.27;;;5.27;;
72647;SDS011;60693;50.002;8.644;2023-09-18T00:28:01;12.18;;;4.75;;
72647;SDS011;60693;50.002;8.644;2023-09-18T00:30:27;12.50;;;5.65;;
72647;SDS011;60693;50.002;8.644;2023-09-18T00:32:53;12.35;;;5.15;;
72647;SDS011;60693;50.002;8.644;2023-09-18T00:35:19;18.13;;;5.57;;
72647;SDS011;60693;50.002;8.644;2023-09-18T00:37:45;12.68;;;5.05;;
72647;SDS011;60693;50.002;8.644;2023-09-18T00:40:11;12.57;;;5.10;;
72647;SDS011;60693;50.002;8.644;2023-09-18T00:42:37;11.63;;;4.82;;
72647;SDS011;60693;50.002;8.644;2023-09-18T00:45:03;16.27;;;7.13;;
72647;SDS011;60693;50.002;8.644;2023-09-18T00:47:29;12.27;;;4.80;;
72647;SDS011;60693;50.002;8.644;2023-09-18T00:49:55;14.35;;;5.45;;
72647;SDS011;60693;50.002;8.644;2023-09-18T00:52:21;11.20;;;4.88;;
72647;SDS011;60693;50.002;8.644;2023-09-18T00:54:48;15.73;;;7.03;;
72647;SDS011;60693;50.002;8.644;2023-09-18T00:57:13;12.98;;;5.07;;
72647;SDS011;60693;50.002;8.644;2023-09-18T00:59:39;10.15;;;4.40;;
72647;SDS011;60693;50.002;8.644;2023-09-18T01:02:05;11.87;;;4.83;;
72647;SDS011;60693;50.002;8.644;2023-09-18T01:04:32;14.67;;;5.67;;
72647;SDS011;60693;50.002;8.644;2023-09-18T01:06:59;11.70;;;4.82;;
72647;SDS011;60693;50.002;8.644;2023-09-18T01:09:32;11.85;;;4.50;;
72647;SDS011;60693;50.002;8.644;2023-09-18T01:12:03;13.38;;;5.30;;
72647;SDS011;60693;50.002;8.644;2023-09-18T01:14:42;11.10;;;4.80;;
72647;SDS011;60693;50.002;8.644;2023-09-18T01:17:10;10.57;;;4.80;;
72647;SDS011;60693;50.002;8.644;2023-09-18T01:19:37;15.20;;;5.22;;
72647;SDS011;60693;50.002;8.644;2023-09-18T01:22:05;9.73;;;4.85;;
72647;SDS011;60693;50.002;8.644;2023-09-18T01:24:35;12.30;;;5.07;;
72647;SDS011;60693;50.002;8.644;2023-09-18T01:27:02;12.98;;;4.90;;
72647;SDS011;60693;50.002;8.644;2023-09-18T01:29:30;11.07;;;5.00;;
72647;SDS011;60693;50.002;8.644;2023-09-18T01:31:58;11.90;;;4.45;;
72647;SDS011;60693;50.002;8.644;2023-09-18T01:34:28;11.75;;;4.95;;
72647;SDS011;60693;50.002;8.644;2023-09-18T01:36:58;10.25;;;4.45;;
72647;SDS011;60693;50.002;8.644;2023-09-18T01:39:25;10.70;;;4.53;;
72647;SDS011;60693;50.002;8.644;2023-09-18T01:41:56;10.00;;;4.60;;
72647;SDS011;60693;50.002;8.644;2023-09-18T01:44:31;11.27;;;5.00;;
72647;SDS011;60693;50.002;8.644;2023-09-18T01:46:58;10.68;;;4.45;;
72647;SDS011;60693;50.002;8.644;2023-09-18T01:49:43;10.35;;;4.22;;
72647;SDS011;60693;50.002;8.644;2023-09-18T01:52:09;10.57;;;4.72;;
72647;SDS011;60693;50.002;8.644;2023-09-18T01:54:36;11.77;;;4.67;;
72647;SDS011;60693;50.002;8.644;2023-09-18T01:57:02;11.43;;;4.53;;
72647;SDS011;60693;50.002;8.644;2023-09-18T01:59:28;13.95;;;4.93;;
72647;SDS011;60693;50.002;8.644;2023-09-18T02:01:54;11.70;;;4.53;;
72647;SDS011;60693;50.002;8.644;2023-09-18T02:04:21;10.20;;;4.40;;
72647;SDS011;60693;50.002;8.644;2023-09-18T02:06:48;11.48;;;4.65;;
72647;SDS011;60693;50.002;8.644;2023-09-18T02:09:15;10.38;;;4.70;;
72647;SDS011;60693;50.002;8.644;2023-09-18T02:11:41;12.90;;;4.53;;
72647;SDS011;60693;50.002;8.644;2023-09-18T02:14:08;13.10;;;4.37;;
72647;SDS011;60693;50.002;8.644;2023-09-18T02:16:35;16.02;;;5.40;;
72647;SDS011;60693;50.002;8.644;2023-09-18T02:19:02;13.02;;;4.95;;
72647;SDS011;60693;50.002;8.644;2023-09-18T02:21:28;12.65;;;4.93;;
72647;SDS011;60693;50.002;8.644;2023-09-18T02:23:54;15.75;;;5.47;;
72647;SDS011;60693;50.002;8.644;2023-09-18T02:26:21;11.57;;;4.60;;
72647;SDS011;60693;50.002;8.644;2023-09-18T02:28:48;14.20;;;5.75;;
72647;SDS011;60693;50.002;8.644;2023-09-18T02:31:13;13.30;;;5.00;;
72647;SDS011;60693;50.002;8.644;2023-09-18T02:33:40;15.67;;;6.03;;
72647;SDS011;60693;50.002;8.644;2023-09-18T02:36:06;14.25;;;5.30;;
72647;SDS011;60693;50.002;8.644;2023-09-18T02:38:33;14.00;;;6.00;;
72647;SDS011;60693;50.002;8.644;2023-09-18T02:40:59;14.20;;;4.85;;
72647;SDS011;60693;50.002;8.644;2023-09-18T02:43:25;13.80;;;5.93;;
72647;SDS011;60693;50.002;8.644;2023-09-18T02:45:51;20.00;;;7.20;;
72647;SDS011;60693;50.002;8.644;2023-09-18T02:48:17;16.15;;;7.22;;
72647;SDS011;60693;50.002;8.644;2023-09-18T02:50:43;13.07;;;6.68;;
72647;SDS011;60693;50.002;8.644;2023-09-18T02:53:20;15.88;;;6.80;;
72647;SDS011;60693;50.002;8.644;2023-09-18T02:55:48;17.80;;;6.07;;
72647;SDS011;60693;50.002;8.644;2023-09-18T02:58:15;14.02;;;6.70;;
72647;SDS011;60693;50.002;8.644;2023-09-18T03:00:41;14.82;;;6.68;;
72647;SDS011;60693;50.002;8.644;2023-09-18T03:03:11;15.20;;;6.22;;
72647;SDS011;60693;50.002;8.644;2023-09-18T03:05:37;16.73;;;7.37;;
72647;SDS011;60693;50.002;8.644;2023-09-18T03:08:04;15.48;;;7.15;;
72647;SDS011;60693;50.002;8.644;2023-09-18T03:10:37;19.33;;;6.97;;
72647;SDS011;60693;50.002;8.644;2023-09-18T03:13:05;14.68;;;7.20;;
72647;SDS011;60693;50.002;8.644;2023-09-18T03:15:31;17.70;;;6.37;;
72647;SDS011;60693;50.002;8.644;2023-09-18T03:17:58;16.25;;;6.50;;
72647;SDS011;60693;50.002;8.644;2023-09-18T03:20:27;14.02;;;6.65;;
72647;SDS011;60693;50.002;8.644;2023-09-18T03:22:55;14.75;;;7.38;;
72647;SDS011;60693;50.002;8.644;2023-09-18T03:25:22;15.60;;;7.15;;
72647;SDS011;60693;50.002;8.644;2023-09-18T03:27:50;13.90;;;7.60;;
72647;SDS011;60693;50.002;8.644;2023-09-18T03:30:17;17.98;;;7.05;;
72647;SDS011;60693;50.002;8.644;2023-09-18T03:32:44;14.18;;;6.38;;
72647;SDS011;60693;50.002;8.644;2023-09-18T03:35:11;17.52;;;6.82;;
72647;SDS011;60693;50.002;8.644;2023-09-18T03:37:43;14.90;;;6.43;;
72647;SDS011;60693;50.002;8.644;2023-09-18T03:40:09;14.17;;;6.03;;
72647;SDS011;60693;50.002;8.644;2023-09-18T03:42:35;15.57;;;6.80;;
72647;SDS011;60693;50.002;8.644;2023-09-18T03:45:01;14.45;;;6.68;;
72647;SDS011;60693;50.002;8.644;2023-09-18T03:47:28;15.73;;;6.60;;
72647;SDS011;60693;50.002;8.644;2023-09-18T03:49:54;13.83;;;6.60;;
72647;SDS011;60693;50.002;8.644;2023-09-18T03:52:20;13.45;;;5.70;;
72647;SDS011;60693;50.002;8.644;2023-09-18T03:54:46;15.87;;;5.70;;
72647;SDS011;60693;50.002;8.644;2023-09-18T03:57:12;13.30;;;5.57;;
72647;SDS011;60693;50.002;8.644;2023-09-18T03:59:38;14.35;;;5.63;;
72647;SDS011;60693;50.002;8.644;2023-09-18T04:02:04;11.07;;;5.05;;
72647;SDS011;60693;50.002;8.644;2023-09-18T04:04:30;12.67;;;6.00;;
72647;SDS011;60693;50.002;8.644;2023-09-18T04:06:57;13.80;;;5.65;;
72647;SDS011;60693;50.002;8.644;2023-09-18T04:09:23;15.35;;;6.30;;
72647;SDS011;60693;50.002;8.644;2023-09-18T04:11:49;14.05;;;5.55;;
72647;SDS011;60693;50.002;8.644;2023-09-18T04:14:15;13.13;;;5.47;;
72647;SDS011;60693;50.002;8.644;2023-09-18T04:16:41;15.23;;;5.45;;
72647;SDS011;60693;50.002;8.644;2023-09-18T04:19:07;13.35;;;5.60;;
72647;SDS011;60693;50.002;8.644;2023-09-18T04:21:33;14.68;;;5.70;;
72647;SDS011;60693;50.002;8.644;2023-09-18T04:23:59;15.17;;;5.43;;
72647;SDS011;60693;50.002;8.644;2023-09-18T04:26:25;15.57;;;5.68;;
72647;SDS011;60693;50.002;8.644;2023-09-18T04:28:55;12.52;;;5.43;;
72647;SDS011;60693;50.002;8.644;2023-09-18T04:31:21;15.45;;;5.82;;
72647;SDS011;60693;50.002;8.644;2023-09-18T04:33:47;14.20;;;5.67;;
72647;SDS011;60693;50.002;8.644;2023-09-18T04:36:14;13.13;;;4.97;;
72647;SDS011;60693;50.002;8.644;2023-09-18T04:38:39;11.93;;;4.80;;
72647;SDS011;60693;50.002;8.644;2023-09-18T04:41:05;14.57;;;5.60;;
72647;SDS011;60693;50.002;8.644;2023-09-18T04:43:35;13.65;;;5.05;;
72647;SDS011;60693;50.002;8.644;2023-09-18T04:46:01;14.90;;;5.75;;
72647;SDS011;60693;50.002;8.644;2023-09-18T04:48:30;12.53;;;5.40;;
72647;SDS011;60693;50.002;8.644;2023-09-18T04:50:59;13.38;;;5.28;;
72647;SDS011;60693;50.002;8.644;2023-09-18T04:53:25;12.98;;;5.85;;
72647;SDS011;60693;50.002;8.644;2023-09-18T04:55:52;15.82;;;5.68;;
72647;SDS011;60693;50.002;8.644;2023-09-18T04:58:18;13.73;;;5.57;;
72647;SDS011;60693;50.002;8.644;2023-09-18T05:00:44;11.75;;;5.45;;
72647;SDS011;60693;50.002;8.644;2023-09-18T05:03:12;18.13;;;6.05;;
72647;SDS011;60693;50.002;8.644;2023-09-18T05:05:38;15.90;;;5.50;;
72647;SDS011;60693;50.002;8.644;2023-09-18T05:08:05;14.97;;;5.70;;
72647;SDS011;60693;50.002;8.644;2023-09-18T05:10:36;15.75;;;5.70;;
72647;SDS011;60693;50.002;8.644;2023-09-18T05:13:02;16.02;;;5.32;;
72647;SDS011;60693;50.002;8.644;2023-09-18T05:15:29;11.73;;;5.30;;
72647;SDS011;60693;50.002;8.644;2023-09-18T05:17:55;13.70;;;5.50;;
72647;SDS011;60693;50.002;8.644;2023-09-18T05:20:27;16.48;;;5.80;;
72647;SDS011;60693;50.002;8.644;2023-09-18T05:22:54;18.02;;;7.28;;
72647;SDS011;60693;50.002;8.644;2023-09-18T05:25:21;34.58;;;20.35;;
72647;SDS011;60693;50.002;8.644;2023-09-18T05:27:48;19.02;;;8.23;;
72647;SDS011;60693;50.002;8.644;2023-09-18T05:30:21;14.00;;;5.40;;
72647;SDS011;60693;50.002;8.644;2023-09-18T05:32:50;14.13;;;4.43;;
72647;SDS011;60693;50.002;8.644;2023-09-18T05:35:16;12.60;;;4.18;;
72647;SDS011;60693;50.002;8.644;2023-09-18T05:37:42;13.47;;;4.23;;
72647;SDS011;60693;50.002;8.644;2023-09-18T05:40:10;10.98;;;3.75;;
72647;SDS011;60693;50.002;8.644;2023-09-18T05:42:37;13.38;;;4.47;;
72647;SDS011;60693;50.002;8.644;2023-09-18T05:45:03;16.90;;;4.22;;
72647;SDS011;60693;50.002;8.644;2023-09-18T05:47:31;14.57;;;4.00;;
72647;SDS011;60693;50.002;8.644;2023-09-18T05:49:58;12.73;;;3.93;;
72647;SDS011;60693;50.002;8.644;2023-09-18T05:52:23;12.85;;;3.75;;
72647;SDS011;60693;50.002;8.644;2023-09-18T05:54:50;16.65;;;4.15;;
72647;SDS011;60693;50.002;8.644;2023-09-18T05:57:17;12.83;;;3.73;;
72647;SDS011;60693;50.002;8.644;2023-09-18T05:59:43;18.38;;;5.15;;
72647;SDS011;60693;50.002;8.644;2023-09-18T06:02:10;15.75;;;4.25;;
72647;SDS011;60693;50.002;8.644;2023-09-18T06:04:37;23.42;;;7.10;;
72647;SDS011;60693;50.002;8.644;2023-09-18T06:07:03;27.43;;;11.33;;
72647;SDS011;60693;50.002;8.644;2023-09-18T06:09:29;16.48;;;4.13;;
72647;SDS011;60693;50.002;8.644;2023-09-18T06:11:55;16.60;;;4.60;;
72647;SDS011;60693;50.002;8.644;2023-09-18T06:14:21;13.82;;;3.90;;
72647;SDS011;60693;50.002;8.644;2023-09-18T06:16:46;18.67;;;4.27;;
72647;SDS011;60693;50.002;8.644;2023-09-18T06:19:12;15.60;;;4.00;;
72647;SDS011;60693;50.002;8.644;2023-09-18T06:21:38;18.67;;;4.00;;
72647;SDS011;60693;50.002;8.644;2023-09-18T06:24:04;21.48;;;4.80;;
72647;SDS011;60693;50.002;8.644;2023-09-18T06:26:30;14.50;;;3.93;;
72647;SDS011;60693;50.002;8.644;2023-09-18T06:28:56;13.77;;;3.90;;
72647;SDS011;60693;50.002;8.644;2023-09-18T06:31:22;32.35;;;14.98;;
72647;SDS011;60693;50.002;8.644;2023-09-18T06:33:49;13.10;;;3.73;;
72647;SDS011;60693;50.002;8.644;2023-09-18T06:36:14;15.07;;;3.78;;
72647;SDS011;60693;50.002;8.644;2023-09-18T06:38:40;15.82;;;3.45;;
72647;SDS011;60693;50.002;8.644;2023-09-18T06:41:06;14.17;;;3.80;;
72647;SDS011;60693;50.002;8.644;2023-09-18T06:43:32;18.63;;;3.63;;
72647;SDS011;60693;50.002;8.644;2023-09-18T06:45:57;17.80;;;3.40;;
72647;SDS011;60693;50.002;8.644;2023-09-18T06:48:24;14.13;;;3.28;;
72647;SDS011;60693;50.002;8.644;2023-09-18T06:50:49;13.98;;;4.30;;
72647;SDS011;60693;50.002;8.644;2023-09-18T06:53:15;14.77;;;3.13;;
72647;SDS011;60693;50.002;8.644;2023-09-18T06:55:41;10.53;;;3.27;;
72647;SDS011;60693;50.002;8.644;2023-09-18T06:58:07;11.63;;;3.28;;
72647;SDS011;60693;50.002;8.644;2023-09-18T07:00:33;14.63;;;3.63;;
72647;SDS011;60693;50.002;8.644;2023-09-18T07:02:59;13.60;;;3.10;;
72647;SDS011;60693;50.002;8.644;2023-09-18T07:05:24;12.47;;;2.90;;
72647;SDS011;60693;50.002;8.644;2023-09-18T07:07:50;14.13;;;2.78;;
72647;SDS011;60693;50.002;8.644;2023-09-18T07:10:16;13.57;;;3.33;;
72647;SDS011;60693;50.002;8.644;2023-09-18T07:12:42;12.67;;;3.20;;
72647;SDS011;60693;50.002;8.644;2023-09-18T07:15:08;15.43;;;3.05;;
72647;SDS011;60693;50.002;8.644;2023-09-18T07:17:34;13.18;;;3.63;;
72647;SDS011;60693;50.002;8.644;2023-09-18T07:20:00;12.20;;;3.00;;
72647;SDS011;60693;50.002;8.644;2023-09-18T07:22:28;15.33;;;3.33;;
72647;SDS011;60693;50.002;8.644;2023-09-18T07:24:54;13.63;;;2.90;;
72647;SDS011;60693;50.002;8.644;2023-09-18T07:27:20;14.95;;;3.13;;
72647;SDS011;60693;50.002;8.644;2023-09-18T07:29:46;13.83;;;2.90;;
72647;SDS011;60693;50.002;8.644;2023-09-18T07:32:12;14.38;;;2.90;;
72647;SDS011;60693;50.002;8.644;2023-09-18T07:34:39;19.52;;;3.35;;
72647;SDS011;60693;50.002;8.644;2023-09-18T07:37:05;17.00;;;3.00;;
72647;SDS011;60693;50.002;8.644;2023-09-18T07:39:31;14.05;;;3.13;;
72647;SDS011;60693;50.002;8.644;2023-09-18T07:41:57;12.27;;;3.25;;
72647;SDS011;60693;50.002;8.644;2023-09-18T07:44:23;14.47;;;3.10;;
72647;SDS011;60693;50.002;8.644;2023-09-18T07:46:49;14.48;;;3.13;;
72647;SDS011;60693;50.002;8.644;2023-09-18T07:49:15;10.83;;;2.87;;
72647;SDS011;60693;50.002;8.644;2023-09-18T07:51:41;13.45;;;3.08;;
72647;SDS011;60693;50.002;8.644;2023-09-18T07:54:07;12.73;;;2.70;;
72647;SDS011;60693;50.002;8.644;2023-09-18T07:56:33;11.73;;;2.87;;
72647;SDS011;60693;50.002;8.644;2023-09-18T07:58:59;14.95;;;3.08;;
72647;SDS011;60693;50.002;8.644;2023-09-18T08:01:25;19.02;;;3.72;;
72647;SDS011;60693;50.002;8.644;2023-09-18T08:03:51;14.57;;;3.07;;
72647;SDS011;60693;50.002;8.644;2023-09-18T08:06:17;12.35;;;2.83;;
72647;SDS011;60693;50.002;8.644;2023-09-18T08:08:44;11.77;;;2.63;;
72647;SDS011;60693;50.002;8.644;2023-09-18T08:11:10;15.80;;;4.97;;
72647;SDS011;60693;50.002;8.644;2023-09-18T08:13:36;14.60;;;2.93;;
72647;SDS011;60693;50.002;8.644;2023-09-18T08:16:05;9.80;;;2.78;;
72647;SDS011;60693;50.002;8.644;2023-09-18T08:18:32;17.25;;;3.00;;
72647;SDS011;60693;50.002;8.644;2023-09-18T08:20:58;13.73;;;2.80;;
72647;SDS011;60693;50.002;8.644;2023-09-18T08:23:24;13.63;;;2.83;;
72647;SDS011;60693;50.002;8.644;2023-09-18T08:25:50;13.52;;;2.75;;
72647;SDS011;60693;50.002;8.644;2023-09-18T08:28:17;11.10;;;2.50;;
72647;SDS011;60693;50.002;8.644;2023-09-18T08:30:43;11.27;;;2.75;;
72647;SDS011;60693;50.002;8.644;2023-09-18T08:33:15;11.47;;;2.53;;
72647;SDS011;60693;50.002;8.644;2023-09-18T08:35:41;13.00;;;2.25;;
72647;SDS011;60693;50.002;8.644;2023-09-18T08:38:07;12.93;;;2.50;;
72647;SDS011;60693;50.002;8.644;2023-09-18T08:40:33;12.57;;;2.53;;
72647;SDS011;60693;50.002;8.644;2023-09-18T08:42:59;12.43;;;2.08;;
72647;SDS011;60693;50.002;8.644;2023-09-18T08:48:13;12.60;;;2.10;;
72647;SDS011;60693;50.002;8.644;2023-09-18T08:50:39;10.63;;;2.60;;
72647;SDS011;60693;50.002;8.644;2023-09-18T08:53:05;11.32;;;2.38;;
72647;SDS011;60693;50.002;8.644;2023-09-18T08:55:31;10.95;;;2.80;;
72647;SDS011;60693;50.002;8.644;2023-09-18T08:57:58;11.55;;;2.35;;
72647;SDS011;60693;50.002;8.644;2023-09-18T09:00:25;10.30;;;2.22;;
72647;SDS011;60693;50.002;8.644;2023-09-18T09:02:52;12.60;;;2.50;;
72647;SDS011;60693;50.002;8.644;2023-09-18T09:05:20;13.38;;;2.42;;
72647;SDS011;60693;50.002;8.644;2023-09-18T09:07:48;13.27;;;3.25;;
72647;SDS011;60693;50.002;8.644;2023-09-18T09:10:14;12.15;;;2.47;;
72647;SDS011;60693;50.002;8.644;2023-09-18T09:12:56;24.10;;;13.40;;
72647;SDS011;60693;50.002;8.644;2023-09-18T09:15:28;11.48;;;2.13;;
72647;SDS011;60693;50.002;8.644;2023-09-18T09:18:05;13.65;;;2.45;;
72647;SDS011;60693;50.002;8.644;2023-09-18T09:20:32;9.65;;;1.90;;
72647;SDS011;60693;50.002;8.644;2023-09-18T09:23:01;8.88;;;1.73;;
72647;SDS011;60693;50.002;8.644;2023-09-18T09:25:29;14.67;;;2.33;;
72647;SDS011;60693;50.002;8.644;2023-09-18T09:28:03;6.78;;;1.30;;
72647;SDS011;60693;50.002;8.644;2023-09-18T09:30:31;9.23;;;1.48;;
72647;SDS011;60693;50.002;8.644;2023-09-18T09:32:58;10.80;;;2.28;;
72647;SDS011;60693;50.002;8.644;2023-09-18T09:35:31;8.05;;;1.33;;
72647;SDS011;60693;50.002;8.644;2023-09-18T09:38:00;9.53;;;1.90;;
72647;SDS011;60693;50.002;8.644;2023-09-18T09:40:28;10.75;;;1.67;;
72647;SDS011;60693;50.002;8.644;2023-09-18T09:42:56;14.25;;;1.95;;
72647;SDS011;60693;50.002;8.644;2023-09-18T09:45:28;9.02;;;1.48;;
72647;SDS011;60693;50.002;8.644;2023-09-18T09:47:56;9.18;;;1.75;;
72647;SDS011;60693;50.002;8.644;2023-09-18T09:50:23;9.53;;;1.60;;
72647;SDS011;60693;50.002;8.644;2023-09-18T09:52:51;12.48;;;1.90;;
72647;SDS011;60693;50.002;8.644;2023-09-18T09:55:22;10.15;;;1.80;;
72647;SDS011;60693;50.002;8.644;2023-09-18T09:58:02;7.90;;;1.48;;
72647;SDS011;60693;50.002;8.644;2023-09-18T10:00:36;10.23;;;1.35;;
72647;SDS011;60693;50.002;8.644;2023-09-18T10:03:12;11.37;;;1.30;;
72647;SDS011;60693;50.002;8.644;2023-09-18T10:05:44;9.38;;;1.75;;
72647;SDS011;60693;50.002;8.644;2023-09-18T10:10:53;7.07;;;1.20;;
72647;SDS011;60693;50.002;8.644;2023-09-18T10:13:27;10.35;;;1.55;;
72647;SDS011;60693;50.002;8.644;2023-09-18T10:15:57;9.57;;;1.53;;
72647;SDS011;60693;50.002;8.644;2023-09-18T10:18:26;7.70;;;1.50;;
72647;SDS011;60693;50.002;8.644;2023-09-18T10:21:00;8.75;;;1.45;;
72647;SDS011;60693;50.002;8.644;2023-09-18T10:23:38;10.52;;;1.60;;
72647;SDS011;60693;50.002;8.644;2023-09-18T10:26:30;13.85;;;2.35;;
72647;SDS011;60693;50.002;8.644;2023-09-18T10:28:58;10.90;;;1.80;;
72647;SDS011;60693;50.002;8.644;2023-09-18T10:31:28;8.90;;;1.60;;
72647;SDS011;60693;50.002;8.644;2023-09-18T10:33:55;8.93;;;1.55;;
72647;SDS011;60693;50.002;8.644;2023-09-18T10:36:23;10.23;;;1.75;;
72647;SDS011;60693;50.002;8.644;2023-09-18T10:38:49;7.47;;;1.23;;
72647;SDS011;60693;50.002;8.644;2023-09-18T10:41:18;10.10;;;1.88;;
72647;SDS011;60693;50.002;8.644;2023-09-18T10:43:45;10.95;;;1.67;;
72647;SDS011;60693;50.002;8.644;2023-09-18T10:46:12;14.10;;;3.67;;
72647;SDS011;60693;50.002;8.644;2023-09-18T10:48:39;9.50;;;1.92;;
72647;SDS011;60693;50.002;8.644;2023-09-18T10:51:07;11.40;;;1.90;;
72647;SDS011;60693;50.002;8.644;2023-09-18T10:53:33;10.63;;;1.58;;
72647;SDS011;60693;50.002;8.644;2023-09-18T10:56:01;10.13;;;3.35;;
72647;SDS011;60693;50.002;8.644;2023-09-18T10:58:29;9.52;;;1.70;;
72647;SDS011;60693;50.002;8.644;2023-09-18T11:00:55;12.00;;;2.55;;
72647;SDS011;60693;50.002;8.644;2023-09-18T11:03:23;9.30;;;2.17;;
72647;SDS011;60693;50.002;8.644;2023-09-18T11:06:01;8.70;;;1.40;;
72647;SDS011;60693;50.002;8.644;2023-09-18T11:08:32;9.23;;;1.73;;
72647;SDS011;60693;50.002;8.644;2023-09-18T11:11:08;9.45;;;1.40;;
72647;SDS011;60693;50.002;8.644;2023-09-18T11:13:38;8.75;;;1.48;;
72647;SDS011;60693;50.002;8.644;2023-09-18T11:16:15;8.67;;;1.60;;
72647;SDS011;60693;50.002;8.644;2023-09-18T11:18:42;7.40;;;1.60;;
72647;SDS011;60693;50.002;8.644;2023-09-18T11:21:09;8.05;;;1.48;;
72647;SDS011;60693;50.002;8.644;2023-09-18T11:23:36;9.40;;;1.40;;
72647;SDS011;60693;50.002;8.644;2023-09-18T11:26:04;8.77;;;1.70;;
72647;SDS011;60693;50.002;8.644;2023-09-18T11:28:31;8.10;;;1.50;;
72647;SDS011;60693;50.002;8.644;2023-09-18T11:30:57;10.70;;;2.13;;
72647;SDS011;60693;50.002;8.644;2023-09-18T11:33:31;10.00;;;2.05;;
72647;SDS011;60693;50.002;8.644;2023-09-18T11:36:05;9.80;;;1.85;;
72647;SDS011;60693;50.002;8.644;2023-09-18T11:38:33;10.65;;;1.67;;
72647;SDS011;60693;50.002;8.644;2023-09-18T11:40:59;9.87;;;1.60;;
72647;SDS011;60693;50.002;8.644;2023-09-18T11:43:27;16.67;;;8.55;;
72647;SDS011;60693;50.002;8.644;2023-09-18T11:45:59;11.10;;;1.63;;
72647;SDS011;60693;50.002;8.644;2023-09-18T11:48:27;19.13;;;11.10;;
72647;SDS011;60693;50.002;8.644;2023-09-18T11:50:57;9.13;;;1.80;;
72647;SDS011;60693;50.002;8.644;2023-09-18T11:53:24;7.53;;;1.30;;
72647;SDS011;60693;50.002;8.644;2023-09-18T11:55:52;11.45;;;1.38;;
72647;SDS011;60693;50.002;8.644;2023-09-18T11:58:18;10.43;;;1.70;;
72647;SDS011;60693;50.002;8.644;2023-09-18T12:00:49;10.02;;;1.48;;
72647;SDS011;60693;50.002;8.644;2023-09-18T12:03:16;10.33;;;1.50;;
72647;SDS011;60693;50.002;8.644;2023-09-18T12:05:52;7.82;;;1.15;;
72647;SDS011;60693;50.002;8.644;2023-09-18T12:08:20;7.72;;;1.58;;
72647;SDS011;60693;50.002;8.644;2023-09-18T12:10:50;11.15;;;1.58;;
72647;SDS011;60693;50.002;8.644;2023-09-18T12:13:16;8.15;;;1.52;;
72647;SDS011;60693;50.002;8.644;2023-09-18T12:15:43;7.77;;;1.43;;
72647;SDS011;60693;50.002;8.644;2023-09-18T12:18:09;7.10;;;1.20;;
72647;SDS011;60693;50.002;8.644;2023-09-18T12:20:37;7.00;;;1.08;;
72647;SDS011;60693;50.002;8.644;2023-09-18T12:23:10;8.27;;;1.33;;
72647;SDS011;60693;50.002;8.644;2023-09-18T12:25:36;13.65;;;5.78;;
72647;SDS011;60693;50.002;8.644;2023-09-18T12:28:01;22.83;;;13.90;;
72647;SDS011;60693;50.002;8.644;2023-09-18T12:30:29;19.80;;;10.23;;
72647;SDS011;60693;50.002;8.644;2023-09-18T12:32:57;8.45;;;1.90;;
72647;SDS011;60693;50.002;8.644;2023-09-18T12:35:23;16.40;;;1.90;;
72647;SDS011;60693;50.002;8.644;2023-09-18T12:37:54;6.47;;;1.40;;
72647;SDS011;60693;50.002;8.644;2023-09-18T12:40:21;9.15;;;1.30;;
72647;SDS011;60693;50.002;8.644;2023-09-18T12:42:48;11.73;;;1.40;;
72647;SDS011;60693;50.002;8.644;2023-09-18T12:45:14;10.30;;;1.88;;
72647;SDS011;60693;50.002;8.644;2023-09-18T12:47:41;7.57;;;1.50;;
72647;SDS011;60693;50.002;8.644;2023-09-18T12:50:08;9.73;;;1.35;;
72647;SDS011;60693;50.002;8.644;2023-09-18T12:52:36;11.57;;;2.08;;
72647;SDS011;60693;50.002;8.644;2023-09-18T12:55:02;8.05;;;1.60;;
72647;SDS011;60693;50.002;8.644;2023-09-18T12:57:29;7.30;;;1.40;;
72647;SDS011;60693;50.002;8.644;2023-09-18T12:59:55;9.77;;;1.60;;
72647;SDS011;60693;50.002;8.644;2023-09-18T13:02:21;7.90;;;1.30;;
72647;SDS011;60693;50.002;8.644;2023-09-18T13:04:54;7.38;;;1.67;;
72647;SDS011;60693;50.002;8.644;2023-09-18T13:07:21;10.37;;;1.90;;
72647;SDS011;60693;50.002;8.644;2023-09-18T13:10:02;10.60;;;1.55;;
72647;SDS011;60693;50.002;8.644;2023-09-18T13:12:40;8.40;;;1.60;;
72647;SDS011;60693;50.002;8.644;2023-09-18T13:15:11;7.72;;;1.48;;
72647;SDS011;60693;50.002;8.644;2023-09-18T13:17:41;9.20;;;1.77;;
72647;SDS011;60693;50.002;8.644;2023-09-18T13:20:11;8.80;;;1.80;;
72647;SDS011;60693;50.002;8.644;2023-09-18T13:22:39;8.43;;;1.75;;
72647;SDS011;60693;50.002;8.644;2023-09-18T13:25:07;7.75;;;1.63;;
72647;SDS011;60693;50.002;8.644;2023-09-18T13:27:34;8.10;;;1.35;;
72647;SDS011;60693;50.002;8.644;2023-09-18T13:30:00;8.40;;;1.60;;
72647;SDS011;60693;50.002;8.644;2023-09-18T13:32:35;9.27;;;1.90;;
72647;SDS011;60693;50.002;8.644;2023-09-18T13:35:02;8.73;;;1.63;;
72647;SDS011;60693;50.002;8.644;2023-09-18T13:37:30;8.10;;;1.60;;
72647;SDS011;60693;50.002;8.644;2023-09-18T13:39:57;9.75;;;1.75;;
72647;SDS011;60693;50.002;8.644;2023-09-18T13:42:23;8.33;;;1.50;;
72647;SDS011;60693;50.002;8.644;2023-09-18T13:44:49;8.10;;;1.40;;
72647;SDS011;60693;50.002;8.644;2023-09-18T13:47:15;9.60;;;1.63;;
72647;SDS011;60693;50.002;8.644;2023-09-18T13:49:41;10.70;;;1.93;;
72647;SDS011;60693;50.002;8.644;2023-09-18T13:52:06;10.45;;;1.88;;
72647;SDS011;60693;50.002;8.644;2023-09-18T13:54:32;8.70;;;1.55;;
72647;SDS011;60693;50.002;8.644;2023-09-18T13:56:58;8.57;;;1.90;;
72647;SDS011;60693;50.002;8.644;2023-09-18T13:59:24;9.38;;;2.17;;
72647;SDS011;60693;50.002;8.644;2023-09-18T14:01:50;17.53;;;8.47;;
72647;SDS011;60693;50.002;8.644;2023-09-18T14:04:17;9.85;;;2.00;;
72647;SDS011;60693;50.002;8.644;2023-09-18T14:06:43;7.82;;;1.60;;
72647;SDS011;60693;50.002;8.644;2023-09-18T14:09:09;8.70;;;1.70;;
72647;SDS011;60693;50.002;8.644;2023-09-18T14:11:35;9.02;;;1.98;;
72647;SDS011;60693;50.002;8.644;2023-09-18T14:14:03;5.47;;;1.65;;
72647;SDS011;60693;50.002;8.644;2023-09-18T14:16:29;8.55;;;1.83;;
72647;SDS011;60693;50.002;8.644;2023-09-18T14:18:58;7.17;;;1.60;;
72647;SDS011;60693;50.002;8.644;2023-09-18T14:21:25;8.45;;;1.95;;
72647;SDS011;60693;50.002;8.644;2023-09-18T14:23:54;9.55;;;1.60;;
72647;SDS011;60693;50.002;8.644;2023-09-18T14:26:19;10.80;;;1.83;;
72647;SDS011;60693;50.002;8.644;2023-09-18T14:28:45;10.93;;;1.70;;
72647;SDS011;60693;50.002;8.644;2023-09-18T14:31:11;8.63;;;1.77;;
72647;SDS011;60693;50.002;8.644;2023-09-18T14:33:37;8.95;;;1.67;;
72647;SDS011;60693;50.002;8.644;2023-09-18T14:36:03;10.03;;;1.50;;
72647;SDS011;60693;50.002;8.644;2023-09-18T14:38:29;8.80;;;1.70;;
72647;SDS011;60693;50.002;8.644;2023-09-18T14:40:55;6.03;;;1.73;;
72647;SDS011;60693;50.002;8.644;2023-09-18T14:43:28;7.95;;;1.75;;
72647;SDS011;60693;50.002;8.644;2023-09-18T14:45:53;7.10;;;1.60;;